createdAt,value
2022-11-21T00:01:28.613Z,2.30
2022-11-21T00:03:59.732Z,2.30
2022-11-21T00:06:28.568Z,2.30
2022-11-21T00:08:57.722Z,2.30
2022-11-21T00:11:25.153Z,2.30
2022-11-21T00:13:52.519Z,2.20
2022-11-21T00:16:19.935Z,2.00
2022-11-21T00:18:47.313Z,2.20
2022-11-21T00:21:16.929Z,2.10
2022-11-21T00:23:45.271Z,2.10
2022-11-21T00:26:14.125Z,2.00
2022-11-21T00:28:41.944Z,2.10
2022-11-21T00:31:09.307Z,2.00
2022-11-21T00:33:38.714Z,1.90
2022-11-21T00:36:08.382Z,1.90
2022-11-21T00:38:36.555Z,1.80
2022-11-21T00:41:04.557Z,1.90
2022-11-21T00:43:33.435Z,1.80
2022-11-21T00:46:02.838Z,1.80
2022-11-21T00:48:32.481Z,1.80
2022-11-21T00:51:05.389Z,1.80
2022-11-21T00:53:33.213Z,1.70
2022-11-21T00:56:01.123Z,1.60
2022-11-21T00:58:28.887Z,1.60
2022-11-21T01:01:22.771Z,1.70
2022-11-21T01:03:50.191Z,1.60
2022-11-21T01:06:17.611Z,1.60
2022-11-21T01:08:45.491Z,1.50
2022-11-21T01:11:16.096Z,1.40
2022-11-21T01:13:44.257Z,1.30
2022-11-21T01:16:21.510Z,1.40
2022-11-21T01:18:49.607Z,1.40
2022-11-21T01:21:20.846Z,1.40
2022-11-21T01:23:50.272Z,1.40
2022-11-21T01:26:23.482Z,1.50
2022-11-21T01:28:52.067Z,1.40
2022-11-21T01:31:22.646Z,1.50
2022-11-21T01:33:50.287Z,1.40
2022-11-21T01:36:23.540Z,1.60
2022-11-21T01:38:59.566Z,1.50
2022-11-21T01:41:38.366Z,1.50
2022-11-21T01:44:25.400Z,1.40
2022-11-21T01:46:53.751Z,1.30
2022-11-21T01:49:27.514Z,1.30
2022-11-21T01:52:30.367Z,1.30
2022-11-21T01:54:59.519Z,1.40
2022-11-21T01:57:32.357Z,1.50
2022-11-21T02:00:13.549Z,1.60
2022-11-21T02:02:48.405Z,1.60
2022-11-21T02:05:23.986Z,1.60
2022-11-21T02:07:55.274Z,1.60
2022-11-21T02:10:23.130Z,1.70
2022-11-21T02:12:52.994Z,1.70
2022-11-21T02:15:23.666Z,1.70
2022-11-21T02:17:51.023Z,1.70
2022-11-21T02:20:20.855Z,1.80
2022-11-21T02:22:54.194Z,1.70
2022-11-21T02:25:25.627Z,1.70
2022-11-21T02:27:58.697Z,1.50
2022-11-21T02:30:27.862Z,1.60
2022-11-21T02:32:55.640Z,1.60
2022-11-21T02:35:23.381Z,1.60
2022-11-21T02:38:19.714Z,1.60
2022-11-21T02:41:14.853Z,1.70
2022-11-21T02:43:48.023Z,1.60
2022-11-21T02:46:15.359Z,1.50
2022-11-21T02:48:43.267Z,1.50
2022-11-21T02:51:10.615Z,1.50
2022-11-21T02:53:37.979Z,1.50
2022-11-21T02:56:06.077Z,1.50
2022-11-21T02:58:33.802Z,1.50
2022-11-21T03:01:01.196Z,1.60
2022-11-21T03:03:28.591Z,1.70
2022-11-21T03:05:56.839Z,1.70
2022-11-21T03:08:24.292Z,1.70
2022-11-21T03:10:51.653Z,1.70
2022-11-21T03:13:22.296Z,1.80
2022-11-21T03:15:49.692Z,1.80
2022-11-21T03:18:17.454Z,1.80
2022-11-21T03:20:44.845Z,1.80
2022-11-21T03:23:12.195Z,1.90
2022-11-21T03:25:39.563Z,2.00
2022-11-21T03:28:07.190Z,2.00
2022-11-21T03:30:34.561Z,2.10
2022-11-21T03:33:01.973Z,2.00
2022-11-21T03:35:29.360Z,2.10
2022-11-21T03:37:56.785Z,2.20
2022-11-21T03:40:24.145Z,2.20
2022-11-21T03:42:51.513Z,2.30
2022-11-21T03:45:20.366Z,2.10
2022-11-21T03:47:47.791Z,2.00
2022-11-21T03:50:18.565Z,2.00
2022-11-21T03:52:45.940Z,2.00
2022-11-21T03:55:13.379Z,2.00
2022-11-21T03:57:41.116Z,2.00
2022-11-21T04:00:09.707Z,2.10
2022-11-21T04:02:37.297Z,2.10
2022-11-21T04:05:04.952Z,2.20
2022-11-21T04:07:32.351Z,2.20
2022-11-21T04:09:59.979Z,2.20
2022-11-21T04:12:27.321Z,2.20
2022-11-21T04:14:55.278Z,2.20
2022-11-21T04:17:22.784Z,2.30
2022-11-21T04:19:50.124Z,2.20
2022-11-21T04:22:17.510Z,2.30
2022-11-21T04:24:44.859Z,2.30
2022-11-21T04:27:13.070Z,2.30
2022-11-21T04:29:41.044Z,2.40
2022-11-21T04:32:08.604Z,2.50
2022-11-21T04:34:35.921Z,2.50
2022-11-21T04:37:06.352Z,2.60
2022-11-21T04:39:37.682Z,2.70
2022-11-21T04:42:05.069Z,2.90
2022-11-21T04:44:32.404Z,2.90
2022-11-21T04:47:05.153Z,3.00
2022-11-21T04:49:32.874Z,3.00
2022-11-21T04:52:00.244Z,3.10
2022-11-21T04:54:27.857Z,3.20
2022-11-21T04:56:55.479Z,3.20
2022-11-21T04:59:22.838Z,3.20
2022-11-21T05:01:50.613Z,3.30
2022-11-21T05:04:20.228Z,3.30
2022-11-21T05:06:47.574Z,3.40
2022-11-21T05:09:17.213Z,3.40
2022-11-21T05:12:05.529Z,3.50
2022-11-21T05:14:32.877Z,3.50
2022-11-21T05:17:00.177Z,3.50
2022-11-21T05:19:27.510Z,3.60
2022-11-21T05:21:55.146Z,3.70
2022-11-21T05:24:22.540Z,3.60
2022-11-21T05:26:50.061Z,3.60
2022-11-21T05:29:17.420Z,3.70
2022-11-21T05:31:45.757Z,3.60
2022-11-21T05:34:13.140Z,3.60
2022-11-21T05:36:40.575Z,3.60
2022-11-21T05:39:07.898Z,3.60
2022-11-21T05:41:35.252Z,3.70
2022-11-21T05:44:03.123Z,3.70
2022-11-21T05:46:31.004Z,3.70
2022-11-21T05:48:59.805Z,3.70
2022-11-21T05:51:28.222Z,3.70
2022-11-21T05:53:57.989Z,3.70
2022-11-21T05:56:28.351Z,3.70
2022-11-21T05:58:58.281Z,3.60
2022-11-21T06:01:44.757Z,3.60
2022-11-21T06:04:13.589Z,3.70
2022-11-21T06:06:41.693Z,3.70
2022-11-21T06:09:09.125Z,3.60
2022-11-21T06:11:36.451Z,3.70
2022-11-21T06:14:04.013Z,3.70
2022-11-21T06:16:31.363Z,3.70
2022-11-21T06:18:59.054Z,3.60
2022-11-21T06:21:29.109Z,3.60
2022-11-21T06:23:59.312Z,3.60
2022-11-21T06:26:28.634Z,3.60
2022-11-21T06:28:55.967Z,3.60
2022-11-21T06:31:27.802Z,3.70
2022-11-21T06:33:59.922Z,3.80
2022-11-21T06:36:30.164Z,3.80
2022-11-21T06:38:59.955Z,3.80
2022-11-21T06:41:30.914Z,3.80
2022-11-21T06:44:02.780Z,3.90
2022-11-21T06:46:31.003Z,4.00
2022-11-21T06:48:58.411Z,4.00
2022-11-21T06:51:26.145Z,4.00
2022-11-21T06:53:59.568Z,4.00
2022-11-21T06:56:29.256Z,3.90
2022-11-21T06:58:56.972Z,3.90
2022-11-21T07:01:25.326Z,4.00
2022-11-21T07:03:53.671Z,4.00
2022-11-21T07:06:21.952Z,4.00
2022-11-21T07:09:17.556Z,4.10
2022-11-21T07:11:41.403Z,4.10
2022-11-21T07:14:09.950Z,4.20
2022-11-21T07:16:39.011Z,4.30
2022-11-21T07:19:06.981Z,4.40
2022-11-21T07:21:34.703Z,4.40
2022-11-21T07:24:04.727Z,4.50
2022-11-21T07:26:33.229Z,4.50
2022-11-21T07:29:00.612Z,4.60
2022-11-21T07:31:28.261Z,4.60
2022-11-21T07:33:55.841Z,4.80
2022-11-21T07:36:23.247Z,4.70
2022-11-21T07:38:50.640Z,4.80
2022-11-21T07:41:18.024Z,4.80
2022-11-21T07:43:45.344Z,4.80
2022-11-21T07:46:12.682Z,4.80
2022-11-21T07:48:40.270Z,4.90
2022-11-21T07:51:07.617Z,4.90
2022-11-21T07:53:34.948Z,5.00
2022-11-21T07:56:02.938Z,5.00
2022-11-21T07:58:30.309Z,5.10
2022-11-21T08:00:58.627Z,5.20
2022-11-21T08:03:25.998Z,5.30
2022-11-21T08:05:53.303Z,5.40
2022-11-21T08:08:20.723Z,5.40
2022-11-21T08:10:48.146Z,5.40
2022-11-21T08:13:15.649Z,5.50
2022-11-21T08:15:43.015Z,5.50
2022-11-21T08:18:15.450Z,5.60
2022-11-21T08:20:43.054Z,5.60
2022-11-21T08:23:11.421Z,5.70
2022-11-21T08:25:41.477Z,6.00
2022-11-21T08:28:11.440Z,5.80
2022-11-21T08:30:40.054Z,6.00
2022-11-21T08:33:07.476Z,6.00
2022-11-21T08:35:38.716Z,6.30
2022-11-21T08:38:09.855Z,6.20
2022-11-21T08:40:37.894Z,6.30
2022-11-21T08:43:08.520Z,6.40
2022-11-21T08:45:38.508Z,6.40
2022-11-21T08:48:11.840Z,6.50
2022-11-21T08:50:40.648Z,6.60
2022-11-21T08:53:09.293Z,6.60
2022-11-21T08:55:40.086Z,6.70
2022-11-21T08:58:09.484Z,6.70
2022-11-21T09:00:40.392Z,6.80
2022-11-21T09:03:10.311Z,6.80
2022-11-21T09:05:38.089Z,7.00
2022-11-21T09:08:06.447Z,7.00
2022-11-21T09:10:37.159Z,7.10
2022-11-21T09:13:04.589Z,7.10
2022-11-21T09:15:50.314Z,7.20
2022-11-21T09:18:18.984Z,7.20
2022-11-21T09:20:46.392Z,7.40
2022-11-21T09:23:16.737Z,7.50
2022-11-21T09:25:45.535Z,7.60
2022-11-21T09:28:15.407Z,7.70
2022-11-21T09:30:44.040Z,7.90
2022-11-21T09:33:14.676Z,8.00
2022-11-21T09:35:45.152Z,8.20
2022-11-21T09:38:13.453Z,8.30
2022-11-21T09:40:45.081Z,8.30
2022-11-21T09:43:36.090Z,8.40
2022-11-21T09:46:21.770Z,8.50
2022-11-21T09:48:59.175Z,8.60
2022-11-21T09:51:30.889Z,8.60
2022-11-21T09:54:14.085Z,8.80
2022-11-21T09:56:43.743Z,9.00
2022-11-21T09:59:34.472Z,9.20
2022-11-21T10:02:05.054Z,10.30
2022-11-21T10:04:32.730Z,11.80
2022-11-21T10:07:06.174Z,13.30
2022-11-21T10:09:37.300Z,14.60
2022-11-21T10:12:37.090Z,16.90
2022-11-21T10:15:25.113Z,15.70
2022-11-21T10:18:01.284Z,14.30
2022-11-21T10:20:59.086Z,12.90
2022-11-21T10:23:49.069Z,12.90
2022-11-21T10:26:48.497Z,13.10
2022-11-21T10:29:40.145Z,12.40
2022-11-21T10:32:29.793Z,11.80
2022-11-21T10:35:01.691Z,11.30
2022-11-21T10:37:37.724Z,11.20
2022-11-21T10:40:22.958Z,11.00
2022-11-21T10:43:22.817Z,10.40
2022-11-21T10:45:51.795Z,10.10
2022-11-21T10:48:19.508Z,9.60
2022-11-21T10:51:06.708Z,9.50
2022-11-21T10:53:56.103Z,9.40
2022-11-21T10:56:27.174Z,9.10
2022-11-21T10:58:56.415Z,9.00
2022-11-21T11:01:28.361Z,9.10
2022-11-21T11:04:45.814Z,9.10
2022-11-21T11:07:27.640Z,8.90
2022-11-21T11:10:27.993Z,8.90
2022-11-21T11:16:15.463Z,8.70
2022-11-21T11:18:54.001Z,8.60
2022-11-21T11:21:27.684Z,8.60
2022-11-21T11:24:14.162Z,8.80
2022-11-21T11:26:53.766Z,8.80
2022-11-21T11:29:23.508Z,8.60
2022-11-21T11:32:21.201Z,8.60
2022-11-21T11:35:22.407Z,8.60
2022-11-21T11:38:04.139Z,8.80
2022-11-21T11:40:42.645Z,8.90
2022-11-21T11:44:33.413Z,8.90
2022-11-21T11:47:32.464Z,8.70
2022-11-21T11:50:15.666Z,8.80
2022-11-21T11:53:24.299Z,9.00
2022-11-21T11:56:16.621Z,9.40
2022-11-21T11:59:05.631Z,9.90
2022-11-21T12:02:11.844Z,10.10
2022-11-21T12:05:09.323Z,9.90
2022-11-21T12:08:39.697Z,9.50
2022-11-21T12:11:12.327Z,9.20
2022-11-21T12:13:41.268Z,9.00
2022-11-21T12:16:14.122Z,9.00
2022-11-21T12:18:56.497Z,9.00
2022-11-21T12:21:24.054Z,8.70
2022-11-21T12:23:53.930Z,8.60
2022-11-21T12:26:37.083Z,8.60
2022-11-21T12:29:42.519Z,8.50
2022-11-21T12:32:25.158Z,8.50
2022-11-21T12:35:29.995Z,8.40
2022-11-21T12:38:04.069Z,8.40
2022-11-21T12:41:00.501Z,8.20
2022-11-21T12:43:57.613Z,8.30
2022-11-21T12:46:53.508Z,8.20
2022-11-21T12:49:54.810Z,8.20
2022-11-21T12:53:05.422Z,8.20
2022-11-21T12:55:40.111Z,8.00
2022-11-21T12:58:37.041Z,8.00
2022-11-21T13:01:42.295Z,7.90
2022-11-21T13:04:17.481Z,7.90
2022-11-21T13:06:48.214Z,8.00
2022-11-21T13:09:20.544Z,8.10
2022-11-21T13:12:28.461Z,9.50
2022-11-21T13:15:19.423Z,9.50
2022-11-21T13:18:07.490Z,9.90
2022-11-21T13:20:39.869Z,9.80
2022-11-21T13:23:40.556Z,10.20
2022-11-21T13:26:56.868Z,10.70
2022-11-21T13:29:24.286Z,9.90
2022-11-21T13:31:51.712Z,9.50
2022-11-21T13:34:45.254Z,9.30
2022-11-21T13:37:50.723Z,9.10
2022-11-21T13:40:26.946Z,9.00
2022-11-21T13:43:33.254Z,9.00
2022-11-21T13:46:01.897Z,8.80
2022-11-21T13:48:34.681Z,8.60
2022-11-21T13:51:13.817Z,8.50
2022-11-21T13:54:18.541Z,8.40
2022-11-21T13:57:20.623Z,8.40
2022-11-21T14:00:19.546Z,8.40
2022-11-21T14:03:38.369Z,8.30
2022-11-21T14:06:19.599Z,8.20
2022-11-21T14:09:20.461Z,8.20
2022-11-21T14:11:54.680Z,8.10
2022-11-21T14:14:42.736Z,8.20
2022-11-21T14:17:22.666Z,8.20
2022-11-21T14:19:52.398Z,8.20
2022-11-21T14:22:38.752Z,8.30
2022-11-21T14:25:18.324Z,8.30
2022-11-21T14:27:49.948Z,8.40
2022-11-21T14:30:31.574Z,8.50
2022-11-21T14:33:39.193Z,8.40
2022-11-21T14:36:13.102Z,8.30
2022-11-21T14:38:50.949Z,8.10
2022-11-21T14:41:28.280Z,8.10
2022-11-21T14:43:58.433Z,7.90
2022-11-21T14:46:26.591Z,7.90
2022-11-21T14:48:54.168Z,7.80
2022-11-21T14:51:24.235Z,7.70
2022-11-21T14:53:55.651Z,7.70
2022-11-21T14:56:28.733Z,7.70
2022-11-21T14:59:01.199Z,7.60
2022-11-21T15:01:30.995Z,7.50
2022-11-21T15:04:09.652Z,7.40
2022-11-21T15:06:47.025Z,7.30
2022-11-21T15:10:26.017Z,7.30
2022-11-21T15:12:09.700Z,7.30
2022-11-21T15:15:12.404Z,7.20
2022-11-21T15:18:03.459Z,7.10
2022-11-21T15:20:29.404Z,7.00
2022-11-21T15:23:01.509Z,6.90
2022-11-21T15:25:31.655Z,6.80
2022-11-21T15:28:02.473Z,6.80
2022-11-21T15:30:34.755Z,6.80
2022-11-21T15:33:08.018Z,6.70
2022-11-21T15:35:43.198Z,6.50
2022-11-21T15:38:25.708Z,6.40
2022-11-21T15:41:01.596Z,6.30
2022-11-21T15:43:55.072Z,6.20
2022-11-21T15:46:31.852Z,6.10
2022-11-21T15:49:25.154Z,6.00
2022-11-21T15:52:06.593Z,6.00
2022-11-21T15:54:38.763Z,6.00
2022-11-21T15:57:06.091Z,6.00
2022-11-21T15:59:33.490Z,6.00
2022-11-21T16:02:01.219Z,6.00
2022-11-21T16:04:28.903Z,6.00
2022-11-21T16:06:56.447Z,5.90
2022-11-21T16:09:23.802Z,5.80
2022-11-21T16:11:51.229Z,5.70
2022-11-21T16:14:18.767Z,5.60
2022-11-21T16:16:47.738Z,5.50
2022-11-21T16:19:15.847Z,5.40
2022-11-21T16:21:44.824Z,5.40
2022-11-21T16:24:13.034Z,5.30
2022-11-21T16:26:42.913Z,5.30
2022-11-21T16:29:11.406Z,5.20
2022-11-21T16:31:41.494Z,5.20
2022-11-21T16:34:09.216Z,5.10
2022-11-21T16:36:36.856Z,5.00
2022-11-21T16:39:10.095Z,5.00
2022-11-21T16:41:41.295Z,4.90
2022-11-21T16:44:14.883Z,4.80
2022-11-21T16:46:47.011Z,4.70
2022-11-21T16:49:16.240Z,4.60
2022-11-21T16:51:46.248Z,4.60
2022-11-21T16:54:15.938Z,4.60
2022-11-21T16:56:45.041Z,4.50
2022-11-21T16:59:12.968Z,4.60
2022-11-21T17:01:44.046Z,4.50
2022-11-21T17:04:17.247Z,4.50
2022-11-21T17:06:48.970Z,4.40
2022-11-21T17:09:18.436Z,4.30
2022-11-21T17:11:46.594Z,4.30
2022-11-21T17:14:16.128Z,4.30
2022-11-21T17:16:46.159Z,4.10
2022-11-21T17:19:19.256Z,4.10
2022-11-21T17:21:49.449Z,4.10
2022-11-21T17:24:18.463Z,4.00
2022-11-21T17:26:47.772Z,3.90
2022-11-21T17:29:18.773Z,3.80
2022-11-21T17:31:47.085Z,3.80
2022-11-21T17:34:16.796Z,3.60
2022-11-21T17:36:44.714Z,3.50
2022-11-21T17:39:18.329Z,3.40
2022-11-21T17:41:47.686Z,3.30
2022-11-21T17:44:16.881Z,3.30
2022-11-21T17:46:47.046Z,3.30
2022-11-21T17:49:16.128Z,3.30
2022-11-21T17:51:46.071Z,3.20
2022-11-21T17:54:14.342Z,3.20
2022-11-21T17:56:46.630Z,3.20
2022-11-21T17:59:18.609Z,3.20
2022-11-21T18:01:47.955Z,3.20
2022-11-21T18:04:18.288Z,3.20
2022-11-21T18:06:47.569Z,3.10
2022-11-21T18:09:17.310Z,3.10
2022-11-21T18:11:46.227Z,2.90
2022-11-21T18:14:15.195Z,2.90
2022-11-21T18:16:50.886Z,3.00
2022-11-21T18:19:21.736Z,3.00
2022-11-21T18:21:50.149Z,2.90
2022-11-21T18:24:20.532Z,2.80
2022-11-21T18:26:50.360Z,2.90
2022-11-21T18:29:35.750Z,2.90
2022-11-21T18:32:08.879Z,2.90
2022-11-21T18:34:39.660Z,2.70
2022-11-21T18:37:08.901Z,2.60
2022-11-21T18:39:37.807Z,2.60
2022-11-21T18:42:07.509Z,2.60
2022-11-21T18:44:37.238Z,2.60
2022-11-21T18:47:19.722Z,2.50
2022-11-21T18:49:49.053Z,2.40
2022-11-21T18:52:17.476Z,2.40
2022-11-21T18:54:47.105Z,2.40
2022-11-21T18:57:15.664Z,2.40
2022-11-21T18:59:44.028Z,2.30
2022-11-21T19:02:12.683Z,2.20
2022-11-21T19:04:42.305Z,2.10
2022-11-21T19:07:10.592Z,2.20
2022-11-21T19:09:39.445Z,2.10
2022-11-21T19:12:09.328Z,2.10
2022-11-21T19:14:38.571Z,2.10
2022-11-21T19:17:08.522Z,2.10
2022-11-21T19:19:37.917Z,2.00
2022-11-21T19:22:06.723Z,1.90
2022-11-21T19:24:37.965Z,1.90
2022-11-21T19:27:10.852Z,1.90
2022-11-21T19:29:39.950Z,1.80
2022-11-21T19:32:08.512Z,1.80
2022-11-21T19:34:40.868Z,1.90
2022-11-21T19:37:10.491Z,1.80
2022-11-21T19:39:44.358Z,1.60
2022-11-21T19:42:12.553Z,1.70
2022-11-21T19:44:41.671Z,1.70
2022-11-21T19:47:12.308Z,1.60
2022-11-21T19:49:41.788Z,1.60
2022-11-21T19:52:10.912Z,1.60
2022-11-21T19:54:53.976Z,1.60
2022-11-21T19:57:22.735Z,1.60
2022-11-21T19:59:52.267Z,1.60
2022-11-21T20:02:27.186Z,1.50
2022-11-21T20:04:57.033Z,1.40
2022-11-21T20:07:25.635Z,1.40
2022-11-21T20:09:54.448Z,1.40
2022-11-21T20:12:22.394Z,1.30
2022-11-21T20:14:54.157Z,1.30
2022-11-21T20:17:22.609Z,1.30
2022-11-21T20:19:52.939Z,1.30
2022-11-21T20:22:21.450Z,1.30
2022-11-21T20:24:51.932Z,1.20
2022-11-21T20:27:20.241Z,1.20
2022-11-21T20:29:48.579Z,1.20
2022-11-21T20:32:17.004Z,1.10
2022-11-21T20:34:44.911Z,1.10
2022-11-21T20:37:15.768Z,1.00
2022-11-21T20:39:53.758Z,1.00
2022-11-21T20:42:23.368Z,1.00
2022-11-21T20:47:41.759Z,1.00
2022-11-21T20:50:11.066Z,0.90
2022-11-21T20:53:50.401Z,0.90
2022-11-21T20:55:34.892Z,0.80
2022-11-21T20:58:03.122Z,0.80
2022-11-21T21:00:31.728Z,0.90
2022-11-21T21:02:59.788Z,0.90
2022-11-21T21:05:27.956Z,0.90
2022-11-21T21:07:55.771Z,0.90
2022-11-21T21:10:25.415Z,0.90
2022-11-21T21:12:53.213Z,0.90
2022-11-21T21:15:20.816Z,0.90
2022-11-21T21:17:48.563Z,1.00
2022-11-21T21:20:16.585Z,1.00
2022-11-21T21:22:44.300Z,1.00
2022-11-21T21:25:12.144Z,1.10
2022-11-21T21:27:40.993Z,1.10
2022-11-21T21:30:12.269Z,1.00
2022-11-21T21:32:42.295Z,1.10
2022-11-21T21:35:10.506Z,1.10
2022-11-21T21:37:38.374Z,1.20
2022-11-21T21:40:06.913Z,1.10
2022-11-21T21:42:34.564Z,1.10
2022-11-21T21:45:02.686Z,1.20
2022-11-21T21:47:30.072Z,1.20
2022-11-21T21:49:57.520Z,1.30
2022-11-21T21:52:24.938Z,1.40
2022-11-21T21:54:52.269Z,1.40
2022-11-21T21:57:19.668Z,1.50
2022-11-21T21:59:48.364Z,1.60
2022-11-21T22:02:15.827Z,1.60
2022-11-21T22:04:45.910Z,1.70
2022-11-21T22:07:17.838Z,1.80
2022-11-21T22:09:46.289Z,1.80
2022-11-21T22:12:13.699Z,1.80
2022-11-21T22:14:41.066Z,1.80
2022-11-21T22:17:08.871Z,2.00
2022-11-21T22:19:36.199Z,2.10
2022-11-21T22:22:04.837Z,2.10
2022-11-21T22:24:32.167Z,2.20
2022-11-21T22:26:59.608Z,2.20
2022-11-21T22:29:27.555Z,2.20
2022-11-21T22:31:56.100Z,2.20
2022-11-21T22:34:23.658Z,2.30
2022-11-21T22:36:51.012Z,2.30
2022-11-21T22:39:18.904Z,2.40
2022-11-21T22:41:46.334Z,2.40
2022-11-21T22:44:13.762Z,2.40
2022-11-21T22:46:46.911Z,2.40
2022-11-21T22:49:14.494Z,2.40
2022-11-21T22:51:51.514Z,2.40
2022-11-21T22:54:18.907Z,2.40
2022-11-21T22:56:46.344Z,2.20
2022-11-21T22:59:14.040Z,2.30
2022-11-21T23:01:41.398Z,2.20
2022-11-21T23:04:11.195Z,2.20
2022-11-21T23:06:45.305Z,2.10
2022-11-21T23:09:15.297Z,2.10
2022-11-21T23:11:42.716Z,2.10
2022-11-21T23:14:10.247Z,2.10
2022-11-21T23:16:39.850Z,2.10
2022-11-21T23:19:07.274Z,2.00
2022-11-21T23:21:34.729Z,2.10
2022-11-21T23:24:02.264Z,2.10
2022-11-21T23:26:29.848Z,2.10
2022-11-21T23:28:57.211Z,2.10
2022-11-21T23:31:24.839Z,2.10
2022-11-21T23:33:52.324Z,2.20
2022-11-21T23:36:19.682Z,2.20
2022-11-21T23:38:47.045Z,2.20
2022-11-21T23:41:14.384Z,2.20
2022-11-21T23:43:41.716Z,2.20
2022-11-21T23:46:09.125Z,2.20
2022-11-21T23:48:36.592Z,2.30
2022-11-21T23:51:04.006Z,2.20
2022-11-21T23:53:33.935Z,2.20
2022-11-21T23:56:01.320Z,2.30
2022-11-21T23:58:28.958Z,2.30
